Time;durP1;ratioP1;P1;durP2;ratioP2;P2;SDS_P1;SDS_P2;PMS_P1;PMS_P2;Temp;Humidity;BMP_temperature;BMP_pressure;BME280_temperature;BME280_humidity;BME280_pressure;Samples;Min_cycle;Max_cycle;Signal;HPM_P1;HPM_P2
2023/04/20 00:01:35;;;;;;;18.80;14.75;;;;;;;11.56;60.68;99022.75;4356001;32;32684;-90
2023/04/20 00:04:03;;;;;;;18.35;14.13;;;;;;;10.99;62.38;99021.44;4383430;32;34205;-90
2023/04/20 00:06:31;;;;;;;19.00;13.85;;;;;;;11.63;60.11;99027.97;4371398;32;35055;-91
2023/04/20 00:09:00;;;;;;;18.70;14.10;;;;;;;11.29;61.16;99015.59;4358399;32;32197;-91
2023/04/20 00:11:36;;;;;;;18.48;14.38;;;;;;;11.58;60.73;99014.06;4373764;32;34292;-90
2023/04/20 00:14:04;;;;;;;17.48;13.30;;;;;;;11.80;59.87;99019.41;4386246;32;34307;-91
2023/04/20 00:16:31;;;;;;;19.77;13.60;;;;;;;11.50;60.56;99015.75;4375506;32;34515;-90
2023/04/20 00:18:59;;;;;;;20.37;14.57;;;;;;;11.29;61.23;99007.81;4375264;32;33626;-91
2023/04/20 00:21:27;;;;;;;19.35;14.20;;;;;;;11.28;61.36;99009.53;4372100;32;34990;-90
2023/04/20 00:23:54;;;;;;;18.25;13.35;;;;;;;11.47;60.81;99004.50;4380455;32;33294;-90
2023/04/20 00:26:33;;;;;;;18.45;13.55;;;;;;;11.86;60.39;99009.09;4388554;32;34776;-91
2023/04/20 00:29:02;;;;;;;18.15;14.45;;;;;;;11.52;60.66;99008.88;4380004;32;34164;-91
2023/04/20 00:31:30;;;;;;;18.92;13.65;;;;;;;11.30;61.21;99013.03;4387333;32;33723;-90
2023/04/20 00:33:58;;;;;;;16.65;13.23;;;;;;;11.84;59.63;99003.00;4359481;32;33872;-96
2023/04/20 00:36:26;;;;;;;19.55;13.93;;;;;;;12.11;59.22;99004.84;4380391;32;34121;-91
2023/04/20 00:38:54;;;;;;;18.35;13.48;;;;;;;11.56;60.82;99005.44;4372805;32;34166;-92
2023/04/20 00:41:22;;;;;;;19.15;13.82;;;;;;;11.98;59.98;99001.34;4369068;32;33956;-91
2023/04/20 00:43:53;;;;;;;18.05;12.93;;;;;;;12.06;59.08;99001.38;4385338;32;34174;-96
2023/04/20 00:46:21;;;;;;;19.85;14.00;;;;;;;11.93;59.37;99009.13;4374558;32;33864;-90
2023/04/20 00:48:52;;;;;;;19.83;14.27;;;;;;;11.67;59.61;98998.56;4377438;32;33728;-91
2023/04/20 00:51:21;;;;;;;18.95;13.80;;;;;;;11.56;59.97;99005.44;4387135;32;34138;-91
2023/04/20 00:53:48;;;;;;;19.65;14.40;;;;;;;11.75;60.11;99010.72;4360032;32;34337;-90
2023/04/20 00:56:18;;;;;;;17.60;12.70;;;;;;;12.15;58.95;98999.66;4352883;32;34424;-91
2023/04/20 00:58:45;;;;;;;16.92;12.18;;;;;;;12.28;59.03;99004.94;4362312;32;32431;-92
2023/04/20 01:01:16;;;;;;;18.80;13.23;;;;;;;12.17;59.44;99002.28;4374434;32;33684;-92
2023/04/20 01:03:45;;;;;;;19.58;12.98;;;;;;;12.26;58.71;99010.13;4375489;32;32721;-92
2023/04/20 01:06:14;;;;;;;16.92;12.50;;;;;;;12.05;58.90;99004.84;4387500;32;34425;-91
2023/04/20 01:08:46;;;;;;;16.33;12.55;;;;;;;12.04;58.39;98996.16;4374652;32;34329;-92
2023/04/20 01:11:14;;;;;;;15.48;12.43;;;;;;;12.29;58.29;99004.06;4368396;32;33761;-92
2023/04/20 01:13:42;;;;;;;17.48;12.25;;;;;;;12.34;58.08;99000.59;4355085;32;34160;-92
2023/04/20 01:16:10;;;;;;;16.45;12.25;;;;;;;12.32;57.96;99009.28;4364928;32;33660;-92
2023/04/20 01:18:47;;;;;;;18.37;13.50;;;;;;;12.31;57.91;99007.53;4365584;32;33891;-91
2023/04/20 01:21:16;;;;;;;17.65;13.52;;;;;;;12.07;58.37;99009.16;4365709;32;34204;-92
2023/04/20 01:23:44;;;;;;;19.65;14.27;;;;;;;11.09;61.18;99012.84;4372627;32;33811;-91
2023/04/20 01:26:15;;;;;;;17.08;13.77;;;;;;;11.49;59.66;99007.97;4367945;32;34271;-90
2023/04/20 01:28:43;;;;;;;20.60;15.88;;;;;;;11.30;60.05;99004.38;4370318;32;33951;-88
2023/04/20 01:31:11;;;;;;;19.05;15.82;;;;;;;11.45;59.50;99007.09;4370168;32;33859;-91
2023/04/20 01:33:40;;;;;;;20.85;15.10;;;;;;;11.31;59.51;99004.38;4370913;32;34252;-90
2023/04/20 01:36:08;;;;;;;18.50;15.13;;;;;;;11.11;60.35;99000.78;4385617;32;33545;-91
2023/04/20 01:38:35;;;;;;;18.65;14.90;;;;;;;11.46;59.49;99003.63;4384367;32;35110;-89
2023/04/20 01:41:05;;;;;;;18.08;13.82;;;;;;;11.55;58.90;99000.22;4372044;32;32887;-89
2023/04/20 01:43:34;;;;;;;19.15;14.50;;;;;;;11.63;58.70;98999.41;4369075;32;33745;-91
2023/04/20 01:46:02;;;;;;;17.67;14.30;;;;;;;11.66;58.24;99002.00;4366551;32;33781;-91
2023/04/20 01:48:30;;;;;;;20.02;14.85;;;;;;;11.61;58.11;99000.25;4359745;32;33933;-92
2023/04/20 01:50:58;;;;;;;21.30;15.18;;;;;;;11.52;58.15;99003.69;4370242;32;33595;-91
2023/04/20 01:53:25;;;;;;;22.80;15.02;;;;;;;11.67;57.79;98995.97;4356872;32;32428;-89
2023/04/20 01:56:16;;;;;;;19.75;15.55;;;;;;;11.69;57.38;99001.16;4371629;32;35165;-92
2023/04/20 01:58:46;;;;;;;20.33;14.95;;;;;;;11.41;58.09;98994.94;4368470;32;34987;-95
2023/04/20 02:01:14;;;;;;;21.15;16.10;;;;;;;11.25;58.53;98999.16;4370760;32;34889;-89
2023/04/20 02:03:42;;;;;;;17.80;14.65;;;;;;;11.06;59.04;99003.34;4366451;32;33489;-91
2023/04/20 02:06:14;;;;;;;19.00;14.43;;;;;;;11.42;58.31;99005.31;4360454;32;34739;-90
2023/04/20 02:08:43;;;;;;;21.55;15.38;;;;;;;11.37;58.12;99006.16;4371473;32;33710;-90
2023/04/20 02:11:11;;;;;;;20.95;15.57;;;;;;;11.29;58.34;99005.22;4360449;32;34397;-95
2023/04/20 02:13:39;;;;;;;18.87;14.32;;;;;;;11.34;58.20;99008.75;4358009;32;34128;-91
2023/04/20 02:16:17;;;;;;;20.05;15.15;;;;;;;11.24;58.20;99001.72;4355727;32;34245;-90
2023/04/20 02:18:46;;;;;;;24.55;15.38;;;;;;;11.29;57.81;99006.12;4348413;32;32937;-92
2023/04/20 02:21:13;;;;;;;21.87;15.05;;;;;;;10.94;58.67;99009.28;4351202;32;33753;-94
2023/04/20 02:23:43;;;;;;;19.52;14.70;;;;;;;10.99;58.62;99005.88;4380193;32;33393;-90
2023/04/20 02:26:11;;;;;;;20.95;15.68;;;;;;;11.06;58.56;99011.13;4358283;32;34159;-90
2023/04/20 02:28:40;;;;;;;19.48;15.05;;;;;;;11.17;58.21;99012.09;4368587;32;34221;-92
2023/04/20 02:31:08;;;;;;;19.70;14.87;;;;;;;11.00;58.64;99007.59;4377425;32;32962;-92
2023/04/20 02:33:36;;;;;;;20.23;14.85;;;;;;;11.10;58.29;99006.81;4374570;32;34473;-92
2023/04/20 02:36:04;;;;;;;19.17;14.65;;;;;;;11.07;58.17;99005.06;4361791;32;34225;-94
2023/04/20 02:38:32;;;;;;;19.77;15.65;;;;;;;11.00;58.47;99005.88;4365480;32;34258;-91
2023/04/20 02:41:00;;;;;;;22.98;15.75;;;;;;;11.04;58.42;99009.38;4363466;32;34414;-90
2023/04/20 02:43:28;;;;;;;20.23;15.38;;;;;;;10.98;58.52;98997.19;4370996;32;34142;-88
2023/04/20 02:45:56;;;;;;;21.52;17.08;;;;;;;10.89;58.95;99005.78;4385318;32;35164;-89
2023/04/20 02:48:24;;;;;;;21.75;15.85;;;;;;;10.98;59.04;99009.31;4371917;32;33378;-92
2023/04/20 02:50:55;;;;;;;20.77;15.93;;;;;;;10.89;59.41;99004.91;4376090;32;33682;-92
2023/04/20 02:53:23;;;;;;;22.60;16.83;;;;;;;10.90;59.51;99002.31;4359944;32;33780;-90
2023/04/20 02:55:51;;;;;;;23.35;17.05;;;;;;;10.95;59.63;99004.97;4381314;32;33937;-90
2023/04/20 02:58:20;;;;;;;21.52;16.55;;;;;;;11.01;59.63;99009.34;4374841;32;34065;-91
2023/04/20 03:00:49;;;;;;;23.48;17.58;;;;;;;11.11;59.46;99013.75;4367626;32;33519;-90
2023/04/20 03:03:18;;;;;;;22.02;16.92;;;;;;;11.10;59.37;99015.50;4367963;32;34716;-90
2023/04/20 03:05:46;;;;;;;23.23;17.37;;;;;;;11.16;59.43;99010.31;4366042;32;34878;-90
2023/04/20 03:08:15;;;;;;;22.27;16.65;;;;;;;10.97;60.20;99013.62;4371056;32;33948;-89
2023/04/20 03:10:45;;;;;;;24.83;17.85;;;;;;;11.03;60.23;99013.69;4368244;32;32524;-89
2023/04/20 03:13:14;;;;;;;21.25;16.37;;;;;;;10.93;60.51;99011.88;4384922;32;33900;-92
2023/04/20 03:15:42;;;;;;;23.55;17.45;;;;;;;11.08;60.38;99011.13;4373804;32;34227;-91
2023/04/20 03:18:12;;;;;;;21.70;16.37;;;;;;;11.04;60.33;99010.22;4369714;32;33680;-90
2023/04/20 03:20:39;;;;;;;23.15;16.65;;;;;;;11.02;60.49;99014.53;4381904;32;33516;-94
2023/04/20 03:23:07;;;;;;;24.08;17.92;;;;;;;11.04;60.64;99006.78;4361160;32;33982;-91
2023/04/20 03:25:34;;;;;;;24.30;15.88;;;;;;;11.01;60.22;99010.19;4374592;32;34104;-89
2023/04/20 03:28:03;;;;;;;23.48;17.27;;;;;;;11.03;60.13;99011.09;4374172;32;33888;-91
2023/04/20 03:30:31;;;;;;;21.90;16.70;;;;;;;11.06;59.79;99013.72;4358188;32;33072;-89
2023/04/20 03:32:59;;;;;;;22.10;16.52;;;;;;;11.01;59.64;99007.59;4374751;32;34776;-90
2023/04/20 03:35:27;;;;;;;22.87;16.40;;;;;;;10.90;59.92;99014.44;4377131;32;35163;-91
2023/04/20 03:37:54;;;;;;;24.77;16.98;;;;;;;11.22;58.89;99012.13;4371415;32;34737;-94
2023/04/20 03:40:22;;;;;;;22.13;17.50;;;;;;;10.60;60.25;99026.22;4384984;32;33826;-90
2023/04/20 03:42:49;;;;;;;22.92;16.70;;;;;;;10.65;60.06;99027.19;4378163;32;33735;-94
2023/04/20 03:45:17;;;;;;;24.25;17.15;;;;;;;10.52;60.26;99027.00;4382624;32;34958;-90
2023/04/20 03:47:45;;;;;;;21.30;16.65;;;;;;;10.52;60.38;99035.66;4381696;32;33780;-91
2023/04/20 03:50:12;;;;;;;23.87;17.70;;;;;;;10.37;60.69;99025.13;4378683;32;33362;-93
2023/04/20 03:52:40;;;;;;;24.05;17.20;;;;;;;10.38;60.49;99032.94;4357411;32;33828;-95
2023/04/20 03:55:08;;;;;;;21.92;17.10;;;;;;;10.53;60.02;99027.06;4380869;32;34038;-91
2023/04/20 03:57:36;;;;;;;24.87;18.77;;;;;;;10.19;60.74;99037.00;4383770;32;33476;-92
2023/04/20 04:00:05;;;;;;;23.33;17.87;;;;;;;10.22;60.69;99041.31;4363181;32;33123;-92
2023/04/20 04:02:44;;;;;;;22.02;18.00;;;;;;;10.28;60.31;99041.44;4383941;32;33901;-93
2023/04/20 04:05:13;;;;;;;23.02;17.02;;;;;;;10.37;60.08;99038.94;4355285;32;34018;-91
2023/04/20 04:07:40;;;;;;;24.15;16.83;;;;;;;10.30;60.38;99049.22;4378677;32;33761;-94
2023/04/20 04:10:09;;;;;;;23.15;17.52;;;;;;;10.06;60.67;99035.09;4367442;32;33624;-92
2023/04/20 04:12:37;;;;;;;23.83;18.20;;;;;;;10.41;59.86;99045.03;4382166;32;33693;-96
2023/04/20 04:15:07;;;;;;;22.33;15.98;;;;;;;10.43;59.73;99040.75;4367541;32;32241;-95
2023/04/20 04:17:35;;;;;;;22.77;16.70;;;;;;;10.48;59.82;99039.94;4384099;32;34235;-90
2023/04/20 04:20:07;;;;;;;21.00;16.33;;;;;;;10.62;59.52;99039.22;4363165;32;33887;-93
2023/04/20 04:22:35;;;;;;;23.85;16.75;;;;;;;10.61;59.78;99038.38;4370197;32;33917;-91
2023/04/20 04:25:10;;;;;;;22.00;17.90;;;;;;;10.14;61.20;99040.37;4373012;32;35001;-93
2023/04/20 04:27:47;;;;;;;23.70;17.20;;;;;;;10.57;60.26;99039.19;4359720;32;33101;-91
2023/04/20 04:30:32;;;;;;;20.60;15.10;;;;;;;10.62;60.34;99034.91;4386322;32;33968;-91
2023/04/20 04:33:03;;;;;;;21.50;16.48;;;;;;;10.73;60.40;99039.34;4381788;32;34541;-91
2023/04/20 04:35:33;;;;;;;21.12;16.33;;;;;;;10.71;60.46;99037.59;4381305;32;34085;-92
2023/04/20 04:38:01;;;;;;;20.98;15.52;;;;;;;10.88;60.76;99040.34;4359819;32;33634;-90
2023/04/20 04:40:28;;;;;;;19.87;14.93;;;;;;;11.07;61.11;99032.75;4372728;32;32107;-90
2023/04/20 04:42:57;;;;;;;21.05;14.55;;;;;;;11.40;61.05;99037.31;4364835;32;34578;-96
2023/04/20 04:45:25;;;;;;;18.95;13.80;;;;;;;11.48;60.79;99030.47;4384339;32;34086;-91
2023/04/20 04:47:52;;;;;;;20.23;14.07;;;;;;;11.67;59.43;99040.13;4383365;32;33905;-90
2023/04/20 04:50:54;;;;;;;21.60;13.48;;;;;;;12.06;59.47;99041.22;4383286;32;33501;-91
2023/04/20 04:53:21;;;;;;;19.48;12.68;;;;;;;12.84;57.28;99040.59;4356542;32;33635;-95
2023/04/20 04:55:49;;;;;;;18.50;14.15;;;;;;;12.96;56.74;99035.44;4359803;32;35131;-94
2023/04/20 04:58:19;;;;;;;25.52;15.57;;;;;;;13.37;55.22;99038.06;4371542;32;34005;-93
2023/04/20 05:00:47;;;;;;;22.23;14.77;;;;;;;13.54;55.47;99032.84;4373152;32;33278;-94
2023/04/20 05:03:15;;;;;;;21.90;15.10;;;;;;;13.18;55.53;99038.03;4371745;32;33574;-94
2023/04/20 05:05:44;;;;;;;18.83;14.68;;;;;;;13.55;54.78;99044.97;4356926;32;34609;-93
2023/04/20 05:08:17;;;;;;;20.20;15.07;;;;;;;13.56;54.84;99045.84;4352338;32;33845;-93
2023/04/20 05:10:44;;;;;;;23.83;14.68;;;;;;;13.88;53.63;99046.66;4380405;32;34208;-93
2023/04/20 05:13:12;;;;;;;23.70;15.93;;;;;;;14.32;53.07;99044.78;4384793;32;33774;-94
2023/04/20 05:15:45;;;;;;;21.30;15.40;;;;;;;13.45;54.30;99044.97;4373249;32;34777;-94
2023/04/20 05:18:29;;;;;;;21.10;15.30;;;;;;;13.60;54.84;99045.84;4339244;32;33647;-93
2023/04/20 05:21:00;;;;;;;22.33;15.90;;;;;;;14.03;54.06;99044.91;4371612;32;33048;-93
2023/04/20 05:23:28;;;;;;;23.42;16.50;;;;;;;14.43;52.67;99045.59;4380327;32;32182;-93
2023/04/20 05:25:55;;;;;;;28.40;18.30;;;;;;;14.36;53.03;99049.13;4359896;32;34279;-96
2023/04/20 05:28:43;;;;;;;23.15;18.12;;;;;;;14.09;53.66;99050.06;4348115;32;32486;-95
2023/04/20 05:31:11;;;;;;;23.87;18.23;;;;;;;14.25;53.34;99048.28;4354228;32;34411;-96
2023/04/20 05:33:39;;;;;;;21.45;16.23;;;;;;;14.58;52.84;99050.78;4352332;32;34553;-89
2023/04/20 05:36:09;;;;;;;21.10;13.68;;;;;;;15.00;51.56;99047.87;4383247;32;34694;-94
2023/04/20 05:38:37;;;;;;;17.27;12.15;;;;;;;14.95;50.77;99045.31;4368356;32;34256;-89
2023/04/20 05:41:05;;;;;;;15.40;9.05;;;;;;;15.13;50.45;99043.47;4370692;32;33110;-96
2023/04/20 05:43:33;;;;;;;12.88;8.35;;;;;;;15.14;49.54;99045.19;4384384;32;34412;-94
2023/04/20 05:46:00;;;;;;;12.18;8.48;;;;;;;14.88;50.57;99048.84;4368697;32;33582;-93
2023/04/20 05:48:28;;;;;;;12.27;7.45;;;;;;;14.79;51.40;99059.34;4371776;32;35059;-93
2023/04/20 05:50:57;;;;;;;11.18;7.55;;;;;;;14.58;50.87;99061.22;4358528;32;33252;-91
2023/04/20 05:53:25;;;;;;;15.05;10.82;;;;;;;14.72;50.52;99060.25;4375858;32;34502;-94
2023/04/20 05:55:53;;;;;;;19.42;13.43;;;;;;;14.94;50.40;99059.25;4369385;32;33780;-92
2023/04/20 05:58:20;;;;;;;17.23;11.85;;;;;;;14.86;51.92;99061.06;4370985;32;34216;-94
2023/04/20 06:00:48;;;;;;;18.75;14.05;;;;;;;14.74;51.96;99064.59;4369630;32;34458;-93
2023/04/20 06:03:16;;;;;;;16.77;11.63;;;;;;;14.46;53.51;99071.66;4346449;32;33842;-90
2023/04/20 06:05:44;;;;;;;14.20;8.65;;;;;;;14.31;52.88;99067.38;4359955;32;35064;-91
2023/04/20 06:08:12;;;;;;;12.00;8.43;;;;;;;14.47;51.47;99070.81;4365218;32;33512;-89
2023/04/20 06:10:40;;;;;;;13.48;8.27;;;;;;;14.53;50.27;99067.31;4374959;32;33431;-94
2023/04/20 06:13:07;;;;;;;16.80;7.82;;;;;;;14.34;50.39;99058.69;4361184;32;34085;-90
2023/04/20 06:15:35;;;;;;;16.20;7.70;;;;;;;14.27;51.22;99070.87;4374759;32;34986;-90
2023/04/20 06:18:03;;;;;;;12.27;7.68;;;;;;;14.32;49.81;99069.13;4370845;32;33839;-95
2023/04/20 06:20:30;;;;;;;10.57;7.90;;;;;;;14.32;50.64;99078.69;4357788;32;33630;-95
2023/04/20 06:22:58;;;;;;;12.13;7.75;;;;;;;14.76;50.41;99072.41;4378442;32;34021;-93
2023/04/20 06:25:26;;;;;;;13.70;8.63;;;;;;;14.44;50.94;99075.16;4369494;32;34885;-94
2023/04/20 06:27:53;;;;;;;13.05;7.93;;;;;;;14.76;49.95;99075.03;4351957;32;33718;-95
2023/04/20 06:30:21;;;;;;;14.38;8.82;;;;;;;14.81;49.50;99073.25;4369815;32;34393;-93
2023/04/20 06:32:49;;;;;;;12.20;8.10;;;;;;;14.99;49.67;99075.75;4376659;32;34453;-91
2023/04/20 06:35:17;;;;;;;12.63;8.30;;;;;;;14.75;48.46;99086.34;4387286;32;35424;-91
2023/04/20 06:37:44;;;;;;;12.70;7.87;;;;;;;14.69;48.71;99081.16;4387653;32;33909;-94
2023/04/20 06:40:12;;;;;;;15.70;8.27;;;;;;;14.62;49.26;99076.84;4380021;32;34566;-96
2023/04/20 06:42:42;;;;;;;11.48;9.05;;;;;;;14.56;49.78;99081.22;4380250;32;33944;-94
2023/04/20 06:45:10;;;;;;;12.93;7.87;;;;;;;14.76;49.00;99080.25;4379999;32;35049;-96
2023/04/20 06:47:38;;;;;;;11.48;7.85;;;;;;;14.86;49.18;99087.16;4379711;32;33784;-91
2023/04/20 06:50:08;;;;;;;14.07;8.70;;;;;;;14.92;48.15;99086.25;4379337;32;33368;-90
2023/04/20 06:52:39;;;;;;;10.35;7.25;;;;;;;14.85;48.73;99088.03;4383593;27;33590;-90
2023/04/20 06:55:07;;;;;;;13.20;8.13;;;;;;;14.80;48.08;99092.41;4351400;32;32450;-90
2023/04/20 06:57:37;;;;;;;15.25;8.52;;;;;;;15.01;48.66;99081.84;4361865;32;88700;-90
2023/04/20 07:00:09;;;;;;;12.13;8.07;;;;;;;15.18;46.76;99080.84;4351139;32;34069;-90
2023/04/20 07:02:44;;;;;;;13.52;8.35;;;;;;;15.28;47.39;99090.34;4365035;32;34358;-91
2023/04/20 07:05:13;;;;;;;14.87;8.75;;;;;;;15.49;46.87;99087.59;4350406;32;34087;-90
2023/04/20 07:07:41;;;;;;;13.40;8.23;;;;;;;15.85;46.14;99085.53;4364277;32;34031;-90
2023/04/20 07:10:10;;;;;;;12.70;7.72;;;;;;;15.63;46.47;99087.44;4338396;32;33665;-90
2023/04/20 07:12:39;;;;;;;12.43;7.75;;;;;;;15.85;45.03;99080.31;4350680;32;33972;-91
2023/04/20 07:15:10;;;;;;;10.77;7.15;;;;;;;15.90;45.93;99088.97;4352837;32;34136;-90
2023/04/20 07:17:37;;;;;;;10.95;6.78;;;;;;;15.98;45.32;99079.28;4364820;32;34495;-90
2023/04/20 07:20:08;;;;;;;10.65;6.65;;;;;;;16.43;44.49;99082.28;4355138;32;32944;-92
2023/04/20 07:38:19;;;;;;;14.25;6.90;;;;;;;16.54;42.37;99090.84;4558441;27;20137;-90
2023/04/20 07:40:47;;;;;;;9.25;6.00;;;;;;;16.55;42.31;99086.47;4393765;32;35476;-91
2023/04/20 07:43:14;;;;;;;12.15;7.50;;;;;;;16.65;42.19;99082.00;4393820;32;34840;-90
2023/04/20 07:45:42;;;;;;;10.68;6.43;;;;;;;16.85;42.23;99085.25;4381064;32;34777;-91
2023/04/20 07:48:12;;;;;;;11.57;6.68;;;;;;;16.47;42.49;99096.19;4394372;32;35048;-93
2023/04/20 07:50:40;;;;;;;12.37;6.15;;;;;;;16.67;41.32;99088.97;4395110;32;34243;-91
2023/04/20 07:53:07;;;;;;;9.63;6.10;;;;;;;17.12;41.04;99093.59;4395146;32;33898;-91
2023/04/20 07:55:35;;;;;;;13.40;7.18;;;;;;;17.70;39.33;99083.03;4382240;32;35214;-91
2023/04/20 07:58:03;;;;;;;11.77;6.97;;;;;;;17.35;40.29;99082.75;4394904;32;35163;-91
2023/04/20 08:00:30;;;;;;;10.05;6.03;;;;;;;17.58;39.37;99080.66;4394741;32;35245;-91
2023/04/20 08:03:15;;;;;;;12.85;5.95;;;;;;;17.87;39.37;99084.53;4393176;32;34720;-92
2023/04/20 08:05:44;;;;;;;12.18;6.75;;;;;;;17.77;40.52;99080.34;4369745;32;33921;-92
2023/04/20 08:08:12;;;;;;;9.43;6.47;;;;;;;17.40;39.46;99079.19;4382368;32;35288;-91
2023/04/20 08:10:39;;;;;;;11.63;6.82;;;;;;;16.83;40.99;99087.03;4382348;32;35470;-91
2023/04/20 08:13:07;;;;;;;12.15;6.85;;;;;;;17.37;41.06;99076.59;4394954;32;34767;-91
2023/04/20 08:15:34;;;;;;;10.63;5.72;;;;;;;17.82;39.26;99081.13;4382314;32;35284;-91
2023/04/20 08:18:02;;;;;;;8.77;5.97;;;;;;;17.99;37.93;99090.44;4382073;32;34531;-93
2023/04/20 08:20:30;;;;;;;11.77;6.18;;;;;;;17.63;39.28;99085.81;4394838;32;35193;-91
2023/04/20 08:22:57;;;;;;;11.82;6.70;;;;;;;17.09;40.20;99083.19;4369602;32;33803;-92
2023/04/20 08:25:25;;;;;;;10.15;5.72;;;;;;;17.25;39.65;99090.78;4394853;32;35373;-92
2023/04/20 08:27:53;;;;;;;11.75;5.47;;;;;;;18.10;38.90;99086.72;4382123;32;35436;-94
2023/04/20 08:30:21;;;;;;;10.25;6.25;;;;;;;17.74;38.91;99083.88;4394370;32;35336;-92
2023/04/20 08:32:49;;;;;;;10.00;6.25;;;;;;;18.50;38.90;99083.31;4382141;32;34778;-93
2023/04/20 08:35:18;;;;;;;10.38;6.18;;;;;;;17.92;38.92;99080.09;4382077;32;35364;-92
2023/04/20 08:37:45;;;;;;;10.13;5.80;;;;;;;17.71;39.48;99083.91;4369408;32;35281;-91
2023/04/20 08:40:13;;;;;;;9.80;6.28;;;;;;;18.18;38.86;99076.94;4394500;32;35315;-91
2023/04/20 08:42:40;;;;;;;12.48;5.93;;;;;;;17.90;38.50;99080.09;4382098;32;34594;-93
2023/04/20 08:45:08;;;;;;;11.15;6.30;;;;;;;18.32;38.58;99077.53;4382097;32;35302;-91
2023/04/20 08:47:35;;;;;;;10.45;6.55;;;;;;;18.90;37.70;99072.84;4394655;32;35517;-91
2023/04/20 08:50:04;;;;;;;11.20;6.28;;;;;;;19.01;37.88;99072.59;4394874;32;34799;-91
2023/04/20 08:52:53;;;;;;;12.10;6.35;;;;;;;18.96;37.85;99065.69;4384094;32;34293;-93
2023/04/20 08:55:20;;;;;;;10.10;6.00;;;;;;;18.88;37.90;99070.25;4381665;32;34224;-92
2023/04/20 08:57:48;;;;;;;9.88;6.00;;;;;;;18.69;37.19;99076.78;4381874;32;35397;-93
2023/04/20 09:00:18;;;;;;;11.32;6.32;;;;;;;18.54;37.25;99082.38;4381908;32;34893;-93
2023/04/20 09:02:54;;;;;;;10.88;6.32;;;;;;;19.03;36.14;99076.06;4394453;32;34773;-90
2023/04/20 09:05:29;;;;;;;10.45;6.25;;;;;;;18.12;38.96;99088.44;4381814;32;34946;-91
2023/04/20 09:08:00;;;;;;;11.35;6.15;;;;;;;18.52;37.43;99081.50;4381801;32;35465;-96
2023/04/20 09:10:42;;;;;;;9.88;6.60;;;;;;;18.89;36.84;99071.97;4369668;32;35154;-92
2023/04/20 09:13:21;;;;;;;10.18;6.40;;;;;;;18.35;37.06;99076.63;4370069;32;34040;-95
2023/04/20 09:15:48;;;;;;;9.55;6.15;;;;;;;18.48;36.91;99068.44;4381630;32;35318;-91
2023/04/20 09:18:17;;;;;;;11.20;6.28;;;;;;;18.75;36.34;99081.06;4381738;32;35446;-91
2023/04/20 09:20:45;;;;;;;14.45;7.15;;;;;;;18.81;36.53;99081.78;4381624;32;35517;-92
2023/04/20 09:23:14;;;;;;;14.63;6.15;;;;;;;18.43;37.11;99069.44;4387877;32;34498;-95
2023/04/20 09:25:45;;;;;;;11.23;5.68;;;;;;;18.89;37.07;99064.09;4381576;32;34803;-94
2023/04/20 09:28:13;;;;;;;9.73;6.18;;;;;;;19.15;36.90;99067.91;4381765;32;35564;-95
2023/04/20 09:30:44;;;;;;;10.75;6.07;;;;;;;19.24;36.60;99062.41;4381111;32;33568;-93
2023/04/20 09:33:13;;;;;;;10.98;6.05;;;;;;;19.49;35.67;99057.41;4368883;32;34205;-94
2023/04/20 09:35:42;;;;;;;11.48;6.45;;;;;;;19.12;36.53;99058.31;4380960;32;35263;-93
2023/04/20 09:38:14;;;;;;;12.00;6.07;;;;;;;19.31;37.26;99061.38;4393315;32;35124;-96
2023/04/20 09:40:42;;;;;;;8.88;5.05;;;;;;;18.74;36.61;99074.09;4393597;32;34949;-93
2023/04/20 09:43:15;;;;;;;7.50;5.43;;;;;;;19.22;35.77;99061.59;4380903;32;34170;-93
2023/04/20 09:45:43;;;;;;;9.52;5.18;;;;;;;19.08;36.54;99059.28;4381103;32;35302;-95
2023/04/20 09:48:10;;;;;;;14.68;6.05;;;;;;;18.82;38.04;99066.91;4393517;32;35432;-96
2023/04/20 09:50:38;;;;;;;9.07;5.53;;;;;;;18.64;37.94;99065.53;4380804;32;34952;-96
2023/04/20 09:53:16;;;;;;;9.15;4.90;;;;;;;18.99;35.99;99061.28;4381125;32;34464;-95
2023/04/20 09:55:48;;;;;;;8.30;5.20;;;;;;;19.05;35.83;99069.00;4380963;32;34704;-94
2023/04/20 09:58:18;;;;;;;11.27;5.03;;;;;;;18.96;35.95;99057.81;4380710;32;35478;-91
2023/04/20 10:00:45;;;;;;;7.35;5.28;;;;;;;18.57;36.01;99059.53;4380967;32;34443;-96
2023/04/20 10:03:17;;;;;;;8.98;5.20;;;;;;;19.03;35.03;99055.06;4393459;32;34055;-96
2023/04/20 10:05:45;;;;;;;9.00;5.20;;;;;;;19.73;35.44;99065.63;4393362;32;35396;-95
2023/04/20 10:08:13;;;;;;;10.18;5.30;;;;;;;19.25;35.77;99053.66;4393064;32;35483;-90
2023/04/20 10:10:46;;;;;;;12.27;5.50;;;;;;;19.71;36.14;99060.41;4379817;32;35147;-90
2023/04/20 10:13:14;;;;;;;9.70;6.20;;;;;;;19.92;35.47;99046.66;4380366;32;35054;-96
2023/04/20 10:15:42;;;;;;;10.30;6.47;;;;;;;20.25;35.86;99051.06;4380176;32;35243;-93
2023/04/20 10:18:17;;;;;;;16.50;7.25;;;;;;;20.09;34.23;99053.25;4393313;32;35443;-94
2023/04/20 10:20:45;;;;;;;;;;;;;;;19.77;35.60;99051.47;4380814;32;35258;-94
2023/04/20 10:23:17;;;;;;;12.27;5.90;;;;;;;19.80;34.66;99044.38;4368409;32;34881;-90
2023/04/20 10:25:59;;;;;;;10.35;5.53;;;;;;;19.70;36.18;99037.66;4380853;32;34568;-95
2023/04/20 10:28:40;;;;;;;11.68;6.72;;;;;;;18.82;36.54;99040.63;4380321;32;35151;-95
2023/04/20 10:31:11;;;;;;;9.05;6.45;;;;;;;18.84;36.26;99044.97;4392995;32;35224;-95
2023/04/20 10:33:53;;;;;;;11.02;7.03;;;;;;;19.36;35.59;99043.72;4368028;32;33219;-91
2023/04/20 10:36:23;;;;;;;13.50;7.35;;;;;;;18.94;36.97;99037.72;4379469;32;35400;-90
2023/04/20 10:38:51;;;;;;;12.77;8.68;;;;;;;18.85;38.04;99044.06;4379360;32;35470;-90
2023/04/20 10:41:19;;;;;;;10.73;7.30;;;;;;;18.29;39.74;99045.25;4379494;32;35032;-91
2023/04/20 10:43:47;;;;;;;11.32;7.15;;;;;;;18.47;38.79;99037.84;4392156;32;35596;-90
2023/04/20 10:46:24;;;;;;;9.18;6.10;;;;;;;18.84;38.08;99037.09;4379290;32;34998;-90
2023/04/20 10:48:52;;;;;;;10.95;6.10;;;;;;;18.96;37.29;99036.78;4379306;32;35576;-90
2023/04/20 10:51:20;;;;;;;11.20;6.70;;;;;;;19.44;38.25;99026.00;4392048;32;34528;-91
2023/04/20 10:54:17;;;;;;;10.88;6.75;;;;;;;20.16;35.17;99020.59;4379492;32;34843;-90
2023/04/20 10:56:47;;;;;;;12.00;5.80;;;;;;;20.27;36.32;99021.16;4364651;32;34692;-90
2023/04/20 10:59:16;;;;;;;7.75;4.90;;;;;;;20.20;34.07;99027.50;4379246;32;35208;-90
2023/04/20 11:01:45;;;;;;;7.97;4.62;;;;;;;19.77;33.96;99020.78;4379022;32;35582;-90
2023/04/20 11:04:14;;;;;;;8.63;4.93;;;;;;;19.84;35.59;99019.69;4361004;32;34770;-90
2023/04/20 11:06:46;;;;;;;9.77;5.30;;;;;;;19.74;35.47;99018.25;4381332;32;35015;-90
2023/04/20 11:09:33;;;;;;;11.12;5.37;;;;;;;19.71;34.55;99010.44;4381259;32;35115;-90
2023/04/20 11:12:03;;;;;;;9.20;4.93;;;;;;;19.78;34.13;99011.13;4393960;32;35174;-91
2023/04/20 11:14:32;;;;;;;9.38;5.47;;;;;;;19.86;34.21;99015.28;4393880;32;34349;-90
2023/04/20 11:17:00;;;;;;;9.15;4.97;;;;;;;19.87;34.25;99008.25;4368865;32;34816;-90
2023/04/20 11:19:30;;;;;;;9.77;4.60;;;;;;;20.12;33.97;99006.66;4381214;32;35193;-90
2023/04/20 11:22:00;;;;;;;10.68;6.37;;;;;;;19.83;33.67;99007.47;4381180;32;34963;-90
2023/04/20 11:24:29;;;;;;;11.40;5.75;;;;;;;19.88;33.88;99005.56;4381217;32;34469;-90
2023/04/20 11:26:57;;;;;;;10.32;6.03;;;;;;;19.90;34.44;99006.41;4381080;32;35193;-90
2023/04/20 11:29:32;;;;;;;11.68;6.82;;;;;;;19.44;36.89;99009.38;4368931;32;35070;-90
2023/04/20 11:32:10;;;;;;;10.03;7.03;;;;;;;19.60;36.00;99008.06;4381068;32;34926;-90
2023/04/20 11:34:38;;;;;;;11.85;6.53;;;;;;;19.49;36.75;99011.88;4381076;32;34859;-90
2023/04/20 11:37:08;;;;;;;12.63;6.75;;;;;;;19.00;38.20;99010.44;4393507;32;35502;-89
2023/04/20 11:39:36;;;;;;;9.85;6.15;;;;;;;19.24;36.57;99007.22;4381168;32;35512;-90
2023/04/20 11:42:05;;;;;;;9.43;5.90;;;;;;;19.63;36.98;99004.53;4368664;32;35164;-90
2023/04/20 11:44:35;;;;;;;10.23;5.68;;;;;;;20.10;36.50;99003.19;4368512;32;33319;-91
2023/04/20 11:47:02;;;;;;;11.15;5.32;;;;;;;20.28;36.45;98999.19;4368870;32;35236;-90
2023/04/20 11:49:30;;;;;;;13.23;5.78;;;;;;;20.83;34.11;98997.50;4394073;32;35357;-94